sensor_id;sensor_type;location;lat;lon;timestamp;temperature;humidity
12049;DHT22;6085;49.452;8.502;2023-02-01T00:01:45;5.70;99.90
12049;DHT22;6085;49.452;8.502;2023-02-01T00:05:55;5.70;99.90
12049;DHT22;6085;49.452;8.502;2023-02-01T00:09:58;5.60;99.90
12049;DHT22;6085;49.452;8.502;2023-02-01T00:14:00;5.60;99.90
12049;DHT22;6085;49.452;8.502;2023-02-01T00:18:02;5.60;99.90
12049;DHT22;6085;49.452;8.502;2023-02-01T00:22:04;5.50;99.90
12049;DHT22;6085;49.452;8.502;2023-02-01T00:26:11;5.50;99.90
12049;DHT22;6085;49.452;8.502;2023-02-01T00:30:14;5.50;99.90
12049;DHT22;6085;49.452;8.502;2023-02-01T00:34:17;5.50;99.90
12049;DHT22;6085;49.452;8.502;2023-02-01T00:38:19;5.50;99.90
12049;DHT22;6085;49.452;8.502;2023-02-01T00:42:22;5.50;99.90
12049;DHT22;6085;49.452;8.502;2023-02-01T00:46:24;5.50;99.90
12049;DHT22;6085;49.452;8.502;2023-02-01T00:50:26;5.50;99.90
12049;DHT22;6085;49.452;8.502;2023-02-01T00:54:28;5.50;99.90
12049;DHT22;6085;49.452;8.502;2023-02-01T00:58:32;5.50;99.90
12049;DHT22;6085;49.452;8.502;2023-02-01T01:02:34;5.50;99.90
12049;DHT22;6085;49.452;8.502;2023-02-01T01:06:35;5.50;99.90
12049;DHT22;6085;49.452;8.502;2023-02-01T01:10:37;5.60;99.90
12049;DHT22;6085;49.452;8.502;2023-02-01T01:14:41;5.60;99.90
12049;DHT22;6085;49.452;8.502;2023-02-01T01:18:43;5.60;99.90
12049;DHT22;6085;49.452;8.502;2023-02-01T01:22:45;5.60;99.90
12049;DHT22;6085;49.452;8.502;2023-02-01T01:26:47;5.70;99.90
12049;DHT22;6085;49.452;8.502;2023-02-01T01:30:50;5.70;99.90
12049;DHT22;6085;49.452;8.502;2023-02-01T01:34:52;5.70;99.90
12049;DHT22;6085;49.452;8.502;2023-02-01T01:38:53;5.70;99.90
12049;DHT22;6085;49.452;8.502;2023-02-01T01:42:56;5.70;99.90
12049;DHT22;6085;49.452;8.502;2023-02-01T01:47:00;5.80;99.90
12049;DHT22;6085;49.452;8.502;2023-02-01T01:51:05;5.80;99.90
12049;DHT22;6085;49.452;8.502;2023-02-01T01:55:09;5.80;99.90
12049;DHT22;6085;49.452;8.502;2023-02-01T01:59:11;5.80;99.90
12049;DHT22;6085;49.452;8.502;2023-02-01T02:03:19;5.80;99.90
12049;DHT22;6085;49.452;8.502;2023-02-01T02:07:26;5.80;99.90
12049;DHT22;6085;49.452;8.502;2023-02-01T02:11:28;5.70;99.90
12049;DHT22;6085;49.452;8.502;2023-02-01T02:15:30;5.70;99.90
12049;DHT22;6085;49.452;8.502;2023-02-01T02:20:03;5.80;99.90
12049;DHT22;6085;49.452;8.502;2023-02-01T02:24:40;5.70;99.90
12049;DHT22;6085;49.452;8.502;2023-02-01T02:33:57;5.70;99.90
12049;DHT22;6085;49.452;8.502;2023-02-01T02:38:12;5.60;99.90
12049;DHT22;6085;49.452;8.502;2023-02-01T02:42:21;5.70;99.90
12049;DHT22;6085;49.452;8.502;2023-02-01T02:46:48;5.60;99.90
12049;DHT22;6085;49.452;8.502;2023-02-01T02:51:12;5.60;99.90
12049;DHT22;6085;49.452;8.502;2023-02-01T02:55:34;5.50;99.90
12049;DHT22;6085;49.452;8.502;2023-02-01T02:59:40;5.50;99.90
12049;DHT22;6085;49.452;8.502;2023-02-01T03:04:00;5.50;99.90
12049;DHT22;6085;49.452;8.502;2023-02-01T03:08:15;5.50;99.90
12049;DHT22;6085;49.452;8.502;2023-02-01T03:12:18;5.50;99.90
12049;DHT22;6085;49.452;8.502;2023-02-01T03:16:43;5.50;99.90
12049;DHT22;6085;49.452;8.502;2023-02-01T03:20:49;5.50;99.90
12049;DHT22;6085;49.452;8.502;2023-02-01T03:24:56;5.50;99.90
12049;DHT22;6085;49.452;8.502;2023-02-01T03:29:07;5.50;99.90
12049;DHT22;6085;49.452;8.502;2023-02-01T03:33:15;5.70;99.90
12049;DHT22;6085;49.452;8.502;2023-02-01T03:37:25;5.80;99.90
12049;DHT22;6085;49.452;8.502;2023-02-01T03:41:35;5.90;99.90
12049;DHT22;6085;49.452;8.502;2023-02-01T03:45:43;6.00;99.90
12049;DHT22;6085;49.452;8.502;2023-02-01T03:49:47;6.00;99.90
12049;DHT22;6085;49.452;8.502;2023-02-01T03:53:52;6.00;99.90
12049;DHT22;6085;49.452;8.502;2023-02-01T03:58:01;6.00;99.90
12049;DHT22;6085;49.452;8.502;2023-02-01T04:02:04;6.00;99.90
12049;DHT22;6085;49.452;8.502;2023-02-01T04:06:06;6.00;99.90
12049;DHT22;6085;49.452;8.502;2023-02-01T04:10:10;6.00;99.90
12049;DHT22;6085;49.452;8.502;2023-02-01T04:14:13;6.00;99.90
12049;DHT22;6085;49.452;8.502;2023-02-01T04:18:15;6.00;99.90
12049;DHT22;6085;49.452;8.502;2023-02-01T04:22:17;6.00;99.90
12049;DHT22;6085;49.452;8.502;2023-02-01T04:26:19;6.00;99.90
12049;DHT22;6085;49.452;8.502;2023-02-01T04:30:22;6.00;99.90
12049;DHT22;6085;49.452;8.502;2023-02-01T04:34:25;6.00;99.90
12049;DHT22;6085;49.452;8.502;2023-02-01T04:38:27;6.00;99.90
12049;DHT22;6085;49.452;8.502;2023-02-01T04:42:29;6.00;99.90
12049;DHT22;6085;49.452;8.502;2023-02-01T04:46:33;6.00;99.90
12049;DHT22;6085;49.452;8.502;2023-02-01T04:50:35;6.10;99.90
12049;DHT22;6085;49.452;8.502;2023-02-01T04:54:37;6.00;99.90
12049;DHT22;6085;49.452;8.502;2023-02-01T04:58:38;6.10;99.90
12049;DHT22;6085;49.452;8.502;2023-02-01T05:02:42;6.10;99.90
12049;DHT22;6085;49.452;8.502;2023-02-01T05:06:44;6.10;99.90
12049;DHT22;6085;49.452;8.502;2023-02-01T05:10:45;6.20;99.90
12049;DHT22;6085;49.452;8.502;2023-02-01T05:14:47;6.20;99.90
12049;DHT22;6085;49.452;8.502;2023-02-01T05:18:49;6.20;99.90
12049;DHT22;6085;49.452;8.502;2023-02-01T05:22:51;6.20;99.90
12049;DHT22;6085;49.452;8.502;2023-02-01T05:26:53;6.10;99.90
12049;DHT22;6085;49.452;8.502;2023-02-01T05:30:55;5.90;99.90
12049;DHT22;6085;49.452;8.502;2023-02-01T05:34:58;5.80;99.90
12049;DHT22;6085;49.452;8.502;2023-02-01T05:39:00;5.70;99.90
12049;DHT22;6085;49.452;8.502;2023-02-01T05:43:02;5.70;99.90
12049;DHT22;6085;49.452;8.502;2023-02-01T05:47:04;5.70;99.90
12049;DHT22;6085;49.452;8.502;2023-02-01T05:51:08;5.70;99.90
12049;DHT22;6085;49.452;8.502;2023-02-01T05:55:10;5.70;99.90
12049;DHT22;6085;49.452;8.502;2023-02-01T05:59:12;5.70;99.90
12049;DHT22;6085;49.452;8.502;2023-02-01T06:03:13;5.70;99.90
12049;DHT22;6085;49.452;8.502;2023-02-01T06:07:17;5.70;99.90
12049;DHT22;6085;49.452;8.502;2023-02-01T06:11:19;5.60;99.90
12049;DHT22;6085;49.452;8.502;2023-02-01T06:15:20;5.50;99.90
12049;DHT22;6085;49.452;8.502;2023-02-01T06:19:23;5.60;99.90
12049;DHT22;6085;49.452;8.502;2023-02-01T06:23:26;5.60;99.90
12049;DHT22;6085;49.452;8.502;2023-02-01T06:27:28;5.60;99.90
12049;DHT22;6085;49.452;8.502;2023-02-01T06:31:30;5.70;99.90
12049;DHT22;6085;49.452;8.502;2023-02-01T06:35:32;5.70;99.90
12049;DHT22;6085;49.452;8.502;2023-02-01T06:39:35;5.60;99.90
12049;DHT22;6085;49.452;8.502;2023-02-01T06:43:37;5.50;99.90
12049;DHT22;6085;49.452;8.502;2023-02-01T06:47:39;5.50;99.90
12049;DHT22;6085;49.452;8.502;2023-02-01T06:51:41;5.50;99.90
12049;DHT22;6085;49.452;8.502;2023-02-01T06:55:52;5.50;99.90
12049;DHT22;6085;49.452;8.502;2023-02-01T06:59:54;5.50;99.90
12049;DHT22;6085;49.452;8.502;2023-02-01T07:03:56;5.40;99.90
12049;DHT22;6085;49.452;8.502;2023-02-01T07:07:58;5.40;99.90
12049;DHT22;6085;49.452;8.502;2023-02-01T07:12:02;5.50;99.90
12049;DHT22;6085;49.452;8.502;2023-02-01T07:16:05;5.60;99.90
12049;DHT22;6085;49.452;8.502;2023-02-01T07:20:08;5.70;99.90
12049;DHT22;6085;49.452;8.502;2023-02-01T07:24:10;5.80;99.90
12049;DHT22;6085;49.452;8.502;2023-02-01T07:28:14;5.70;99.90
12049;DHT22;6085;49.452;8.502;2023-02-01T07:32:16;5.70;99.90
12049;DHT22;6085;49.452;8.502;2023-02-01T07:36:18;5.80;99.90
12049;DHT22;6085;49.452;8.502;2023-02-01T07:40:20;5.80;99.90
12049;DHT22;6085;49.452;8.502;2023-02-01T07:44:30;6.00;99.90
12049;DHT22;6085;49.452;8.502;2023-02-01T07:48:32;6.20;99.90
12049;DHT22;6085;49.452;8.502;2023-02-01T07:52:35;6.20;99.90
12049;DHT22;6085;49.452;8.502;2023-02-01T07:56:36;6.20;99.90
12049;DHT22;6085;49.452;8.502;2023-02-01T08:00:40;6.20;99.90
12049;DHT22;6085;49.452;8.502;2023-02-01T08:04:59;6.20;99.90
12049;DHT22;6085;49.452;8.502;2023-02-01T08:09:01;6.30;99.90
12049;DHT22;6085;49.452;8.502;2023-02-01T08:13:03;6.40;99.90
12049;DHT22;6085;49.452;8.502;2023-02-01T08:17:06;6.50;99.90
12049;DHT22;6085;49.452;8.502;2023-02-01T08:21:10;6.60;99.90
12049;DHT22;6085;49.452;8.502;2023-02-01T08:25:12;6.70;99.90
12049;DHT22;6085;49.452;8.502;2023-02-01T08:29:14;6.60;99.90
12049;DHT22;6085;49.452;8.502;2023-02-01T08:33:17;6.60;99.90
12049;DHT22;6085;49.452;8.502;2023-02-01T08:37:19;6.60;99.90
12049;DHT22;6085;49.452;8.502;2023-02-01T08:41:24;6.60;99.90
12049;DHT22;6085;49.452;8.502;2023-02-01T08:45:28;6.60;99.90
12049;DHT22;6085;49.452;8.502;2023-02-01T08:49:31;6.50;99.90
12049;DHT22;6085;49.452;8.502;2023-02-01T08:53:34;6.50;99.90
12049;DHT22;6085;49.452;8.502;2023-02-01T08:57:36;6.50;99.90
12049;DHT22;6085;49.452;8.502;2023-02-01T09:01:39;6.50;99.90
12049;DHT22;6085;49.452;8.502;2023-02-01T09:05:42;6.50;99.90
12049;DHT22;6085;49.452;8.502;2023-02-01T09:09:45;6.40;99.90
12049;DHT22;6085;49.452;8.502;2023-02-01T09:13:48;6.50;99.90
12049;DHT22;6085;49.452;8.502;2023-02-01T09:17:49;6.60;99.90
12049;DHT22;6085;49.452;8.502;2023-02-01T09:21:53;7.00;99.90
12049;DHT22;6085;49.452;8.502;2023-02-01T09:25:58;7.30;99.90
12049;DHT22;6085;49.452;8.502;2023-02-01T09:30:00;8.20;99.90
12049;DHT22;6085;49.452;8.502;2023-02-01T09:34:02;8.10;99.90
12049;DHT22;6085;49.452;8.502;2023-02-01T09:38:05;7.80;99.90
12049;DHT22;6085;49.452;8.502;2023-02-01T09:42:16;7.50;99.90
12049;DHT22;6085;49.452;8.502;2023-02-01T09:46:23;7.40;99.90
12049;DHT22;6085;49.452;8.502;2023-02-01T09:50:30;7.40;99.90
12049;DHT22;6085;49.452;8.502;2023-02-01T09:54:41;7.40;99.90
12049;DHT22;6085;49.452;8.502;2023-02-01T09:58:47;7.50;99.90
12049;DHT22;6085;49.452;8.502;2023-02-01T10:02:54;7.50;99.90
12049;DHT22;6085;49.452;8.502;2023-02-01T10:07:02;7.50;99.90
12049;DHT22;6085;49.452;8.502;2023-02-01T10:11:19;7.50;99.90
12049;DHT22;6085;49.452;8.502;2023-02-01T10:15:30;7.50;99.90
12049;DHT22;6085;49.452;8.502;2023-02-01T10:19:41;7.50;99.90
12049;DHT22;6085;49.452;8.502;2023-02-01T10:28:27;7.50;99.90
12049;DHT22;6085;49.452;8.502;2023-02-01T10:32:31;7.40;99.90
12049;DHT22;6085;49.452;8.502;2023-02-01T10:36:36;7.30;99.90
12049;DHT22;6085;49.452;8.502;2023-02-01T10:40:41;7.30;99.90
12049;DHT22;6085;49.452;8.502;2023-02-01T10:44:45;7.30;99.90
12049;DHT22;6085;49.452;8.502;2023-02-01T10:48:49;7.30;99.90
12049;DHT22;6085;49.452;8.502;2023-02-01T10:52:57;7.30;99.90
12049;DHT22;6085;49.452;8.502;2023-02-01T10:57:00;7.30;99.90
12049;DHT22;6085;49.452;8.502;2023-02-01T11:01:05;7.30;99.90
12049;DHT22;6085;49.452;8.502;2023-02-01T11:05:09;7.40;99.90
12049;DHT22;6085;49.452;8.502;2023-02-01T11:09:18;7.50;99.90
12049;DHT22;6085;49.452;8.502;2023-02-01T11:13:28;7.50;99.90
12049;DHT22;6085;49.452;8.502;2023-02-01T11:17:35;7.50;99.90
12049;DHT22;6085;49.452;8.502;2023-02-01T11:21:42;7.60;99.90
12049;DHT22;6085;49.452;8.502;2023-02-01T11:25:50;7.70;99.90
12049;DHT22;6085;49.452;8.502;2023-02-01T11:29:54;7.90;99.90
12049;DHT22;6085;49.452;8.502;2023-02-01T11:34:05;7.90;99.90
12049;DHT22;6085;49.452;8.502;2023-02-01T11:38:16;8.00;99.90
12049;DHT22;6085;49.452;8.502;2023-02-01T11:42:21;7.90;99.90
12049;DHT22;6085;49.452;8.502;2023-02-01T11:46:28;7.70;99.90
12049;DHT22;6085;49.452;8.502;2023-02-01T11:50:38;7.60;99.90
12049;DHT22;6085;49.452;8.502;2023-02-01T11:59:32;7.50;99.90
12049;DHT22;6085;49.452;8.502;2023-02-01T12:04:04;7.50;99.90
12049;DHT22;6085;49.452;8.502;2023-02-01T12:08:26;7.60;99.90
12049;DHT22;6085;49.452;8.502;2023-02-01T12:12:36;7.70;99.90
12049;DHT22;6085;49.452;8.502;2023-02-01T12:16:49;7.70;99.90
12049;DHT22;6085;49.452;8.502;2023-02-01T12:21:04;7.70;99.90
12049;DHT22;6085;49.452;8.502;2023-02-01T12:25:24;7.70;99.90
12049;DHT22;6085;49.452;8.502;2023-02-01T12:29:48;7.70;99.90
12049;DHT22;6085;49.452;8.502;2023-02-01T12:34:19;7.80;99.90
12049;DHT22;6085;49.452;8.502;2023-02-01T12:38:36;7.80;99.90
12049;DHT22;6085;49.452;8.502;2023-02-01T12:42:45;7.90;99.90
12049;DHT22;6085;49.452;8.502;2023-02-01T12:46:52;8.00;99.90
12049;DHT22;6085;49.452;8.502;2023-02-01T12:50:57;7.90;99.90
12049;DHT22;6085;49.452;8.502;2023-02-01T12:55:07;7.80;99.90
12049;DHT22;6085;49.452;8.502;2023-02-01T12:59:19;7.90;99.90
12049;DHT22;6085;49.452;8.502;2023-02-01T13:03:32;7.80;99.90
12049;DHT22;6085;49.452;8.502;2023-02-01T13:07:41;7.70;99.90
12049;DHT22;6085;49.452;8.502;2023-02-01T13:11:45;7.70;99.90
12049;DHT22;6085;49.452;8.502;2023-02-01T13:15:55;7.60;99.90
12049;DHT22;6085;49.452;8.502;2023-02-01T13:20:03;7.50;99.90
12049;DHT22;6085;49.452;8.502;2023-02-01T13:24:20;7.50;99.90
12049;DHT22;6085;49.452;8.502;2023-02-01T13:28:27;7.40;99.90
12049;DHT22;6085;49.452;8.502;2023-02-01T13:32:53;7.40;99.90
12049;DHT22;6085;49.452;8.502;2023-02-01T13:37:16;7.40;99.90
12049;DHT22;6085;49.452;8.502;2023-02-01T13:41:28;7.40;99.90
12049;DHT22;6085;49.452;8.502;2023-02-01T13:45:32;7.50;99.90
12049;DHT22;6085;49.452;8.502;2023-02-01T13:49:39;7.60;99.90
12049;DHT22;6085;49.452;8.502;2023-02-01T13:53:46;7.70;99.90
12049;DHT22;6085;49.452;8.502;2023-02-01T13:57:49;7.70;99.90
12049;DHT22;6085;49.452;8.502;2023-02-01T14:01:51;7.70;99.90
12049;DHT22;6085;49.452;8.502;2023-02-01T14:06:00;7.60;99.90
12049;DHT22;6085;49.452;8.502;2023-02-01T14:14:40;7.60;99.90
12049;DHT22;6085;49.452;8.502;2023-02-01T14:18:59;7.70;99.90
12049;DHT22;6085;49.452;8.502;2023-02-01T14:23:03;7.70;99.90
12049;DHT22;6085;49.452;8.502;2023-02-01T14:27:21;7.70;99.90
12049;DHT22;6085;49.452;8.502;2023-02-01T14:31:52;7.70;99.90
12049;DHT22;6085;49.452;8.502;2023-02-01T14:36:08;7.80;99.90
12049;DHT22;6085;49.452;8.502;2023-02-01T14:40:19;7.80;99.90
12049;DHT22;6085;49.452;8.502;2023-02-01T14:44:28;7.80;99.90
12049;DHT22;6085;49.452;8.502;2023-02-01T14:48:43;7.70;99.90
12049;DHT22;6085;49.452;8.502;2023-02-01T14:52:49;7.70;99.90
12049;DHT22;6085;49.452;8.502;2023-02-01T14:56:53;7.80;99.90
12049;DHT22;6085;49.452;8.502;2023-02-01T15:00:57;7.80;99.90
12049;DHT22;6085;49.452;8.502;2023-02-01T15:04:59;7.80;99.90
12049;DHT22;6085;49.452;8.502;2023-02-01T15:09:04;7.80;99.90
12049;DHT22;6085;49.452;8.502;2023-02-01T15:13:18;7.80;99.90
12049;DHT22;6085;49.452;8.502;2023-02-01T15:17:23;7.70;99.90
12049;DHT22;6085;49.452;8.502;2023-02-01T15:21:25;7.80;99.90
12049;DHT22;6085;49.452;8.502;2023-02-01T15:25:31;7.80;99.90
12049;DHT22;6085;49.452;8.502;2023-02-01T15:29:34;7.80;99.90
12049;DHT22;6085;49.452;8.502;2023-02-01T15:33:36;7.80;99.90
12049;DHT22;6085;49.452;8.502;2023-02-01T15:37:38;7.80;99.90
12049;DHT22;6085;49.452;8.502;2023-02-01T15:41:41;7.70;99.90
12049;DHT22;6085;49.452;8.502;2023-02-01T15:45:46;7.70;99.90
12049;DHT22;6085;49.452;8.502;2023-02-01T15:49:51;7.60;99.90
12049;DHT22;6085;49.452;8.502;2023-02-01T15:53:56;7.60;99.90
12049;DHT22;6085;49.452;8.502;2023-02-01T15:57:59;7.60;99.90
12049;DHT22;6085;49.452;8.502;2023-02-01T16:02:02;7.60;99.90
12049;DHT22;6085;49.452;8.502;2023-02-01T16:06:06;7.50;99.90
12049;DHT22;6085;49.452;8.502;2023-02-01T16:10:23;7.40;99.90
12049;DHT22;6085;49.452;8.502;2023-02-01T16:14:26;7.40;99.90
12049;DHT22;6085;49.452;8.502;2023-02-01T16:18:29;7.40;99.90
12049;DHT22;6085;49.452;8.502;2023-02-01T16:22:31;7.40;99.90
12049;DHT22;6085;49.452;8.502;2023-02-01T16:26:34;7.30;99.90
12049;DHT22;6085;49.452;8.502;2023-02-01T16:30:36;7.30;99.90
12049;DHT22;6085;49.452;8.502;2023-02-01T16:34:39;7.30;99.90
12049;DHT22;6085;49.452;8.502;2023-02-01T16:38:41;7.30;99.90
12049;DHT22;6085;49.452;8.502;2023-02-01T16:42:43;7.30;99.90
12049;DHT22;6085;49.452;8.502;2023-02-01T16:46:47;7.30;99.90
12049;DHT22;6085;49.452;8.502;2023-02-01T16:50:53;7.30;99.90
12049;DHT22;6085;49.452;8.502;2023-02-01T16:54:55;7.30;99.90
12049;DHT22;6085;49.452;8.502;2023-02-01T16:58:57;7.30;99.90
12049;DHT22;6085;49.452;8.502;2023-02-01T17:02:59;7.30;99.90
12049;DHT22;6085;49.452;8.502;2023-02-01T17:07:02;7.30;99.90
12049;DHT22;6085;49.452;8.502;2023-02-01T17:11:11;7.20;99.90
12049;DHT22;6085;49.452;8.502;2023-02-01T17:15:13;7.20;99.90
12049;DHT22;6085;49.452;8.502;2023-02-01T17:19:18;7.30;99.90
12049;DHT22;6085;49.452;8.502;2023-02-01T17:23:25;7.30;99.90
12049;DHT22;6085;49.452;8.502;2023-02-01T17:27:27;7.30;99.90
12049;DHT22;6085;49.452;8.502;2023-02-01T17:31:29;7.20;99.90
12049;DHT22;6085;49.452;8.502;2023-02-01T17:35:31;7.30;99.90
12049;DHT22;6085;49.452;8.502;2023-02-01T17:39:35;7.20;99.90
12049;DHT22;6085;49.452;8.502;2023-02-01T17:43:54;7.20;99.90
12049;DHT22;6085;49.452;8.502;2023-02-01T17:47:56;7.10;99.90
12049;DHT22;6085;49.452;8.502;2023-02-01T17:51:57;7.00;99.90
12049;DHT22;6085;49.452;8.502;2023-02-01T17:56:01;6.90;99.90
12049;DHT22;6085;49.452;8.502;2023-02-01T18:00:04;6.80;99.90
12049;DHT22;6085;49.452;8.502;2023-02-01T18:04:11;6.70;99.90
12049;DHT22;6085;49.452;8.502;2023-02-01T18:08:13;6.70;99.90
12049;DHT22;6085;49.452;8.502;2023-02-01T18:12:18;6.60;99.90
12049;DHT22;6085;49.452;8.502;2023-02-01T18:16:23;6.60;99.90
12049;DHT22;6085;49.452;8.502;2023-02-01T18:20:26;6.60;99.90
12049;DHT22;6085;49.452;8.502;2023-02-01T18:24:28;6.60;99.90
12049;DHT22;6085;49.452;8.502;2023-02-01T18:28:34;6.70;99.90
12049;DHT22;6085;49.452;8.502;2023-02-01T18:32:36;6.70;99.90
12049;DHT22;6085;49.452;8.502;2023-02-01T18:36:38;6.70;99.90
12049;DHT22;6085;49.452;8.502;2023-02-01T18:40:45;6.60;99.90
12049;DHT22;6085;49.452;8.502;2023-02-01T18:44:49;6.60;99.90
12049;DHT22;6085;49.452;8.502;2023-02-01T18:48:51;6.70;99.90
12049;DHT22;6085;49.452;8.502;2023-02-01T18:52:54;6.80;99.90
12049;DHT22;6085;49.452;8.502;2023-02-01T18:56:56;6.90;99.90
12049;DHT22;6085;49.452;8.502;2023-02-01T19:01:05;6.90;99.90
12049;DHT22;6085;49.452;8.502;2023-02-01T19:05:09;6.90;99.90
12049;DHT22;6085;49.452;8.502;2023-02-01T19:09:11;6.80;99.90
12049;DHT22;6085;49.452;8.502;2023-02-01T19:13:13;6.80;99.90
12049;DHT22;6085;49.452;8.502;2023-02-01T19:17:16;6.80;99.90
12049;DHT22;6085;49.452;8.502;2023-02-01T19:21:18;6.70;99.90
12049;DHT22;6085;49.452;8.502;2023-02-01T19:25:22;6.70;99.90
12049;DHT22;6085;49.452;8.502;2023-02-01T19:29:24;6.70;99.90
12049;DHT22;6085;49.452;8.502;2023-02-01T19:33:27;6.60;99.90
12049;DHT22;6085;49.452;8.502;2023-02-01T19:37:29;6.70;99.90
12049;DHT22;6085;49.452;8.502;2023-02-01T19:41:32;6.80;99.90
12049;DHT22;6085;49.452;8.502;2023-02-01T19:45:34;6.80;99.90
12049;DHT22;6085;49.452;8.502;2023-02-01T19:49:38;6.80;99.90
12049;DHT22;6085;49.452;8.502;2023-02-01T19:53:40;6.90;99.90
12049;DHT22;6085;49.452;8.502;2023-02-01T19:57:42;6.90;99.90
12049;DHT22;6085;49.452;8.502;2023-02-01T20:01:44;7.00;99.90
12049;DHT22;6085;49.452;8.502;2023-02-01T20:05:51;7.00;99.90
12049;DHT22;6085;49.452;8.502;2023-02-01T20:09:53;7.00;99.90
12049;DHT22;6085;49.452;8.502;2023-02-01T20:13:56;7.10;99.90
12049;DHT22;6085;49.452;8.502;2023-02-01T20:17:58;7.10;99.90
12049;DHT22;6085;49.452;8.502;2023-02-01T20:22:01;7.20;99.90
12049;DHT22;6085;49.452;8.502;2023-02-01T20:26:04;7.20;99.90
12049;DHT22;6085;49.452;8.502;2023-02-01T20:30:07;7.20;99.90
12049;DHT22;6085;49.452;8.502;2023-02-01T20:34:10;7.20;99.90
12049;DHT22;6085;49.452;8.502;2023-02-01T20:38:13;7.20;99.90
12049;DHT22;6085;49.452;8.502;2023-02-01T20:42:15;7.20;99.90
12049;DHT22;6085;49.452;8.502;2023-02-01T20:46:17;7.20;99.90
12049;DHT22;6085;49.452;8.502;2023-02-01T20:50:19;7.20;99.90
12049;DHT22;6085;49.452;8.502;2023-02-01T20:54:23;7.20;99.90
12049;DHT22;6085;49.452;8.502;2023-02-01T20:58:25;7.20;99.90
12049;DHT22;6085;49.452;8.502;2023-02-01T21:02:27;7.30;99.90
12049;DHT22;6085;49.452;8.502;2023-02-01T21:06:29;7.30;99.90
12049;DHT22;6085;49.452;8.502;2023-02-01T21:10:32;7.30;99.90
12049;DHT22;6085;49.452;8.502;2023-02-01T21:14:34;7.40;99.90
12049;DHT22;6085;49.452;8.502;2023-02-01T21:18:36;7.40;99.90
12049;DHT22;6085;49.452;8.502;2023-02-01T21:22:38;7.40;99.90
12049;DHT22;6085;49.452;8.502;2023-02-01T21:26:41;7.40;99.90
12049;DHT22;6085;49.452;8.502;2023-02-01T21:30:43;7.40;99.90
12049;DHT22;6085;49.452;8.502;2023-02-01T21:34:45;7.40;99.90
12049;DHT22;6085;49.452;8.502;2023-02-01T21:38:47;7.30;99.90
12049;DHT22;6085;49.452;8.502;2023-02-01T21:42:52;7.30;99.90
12049;DHT22;6085;49.452;8.502;2023-02-01T21:46:54;7.30;99.90
12049;DHT22;6085;49.452;8.502;2023-02-01T21:50:56;7.30;99.90
12049;DHT22;6085;49.452;8.502;2023-02-01T21:54:58;7.30;99.90
12049;DHT22;6085;49.452;8.502;2023-02-01T21:59:01;7.30;99.90
12049;DHT22;6085;49.452;8.502;2023-02-01T22:03:04;7.30;99.90
12049;DHT22;6085;49.452;8.502;2023-02-01T22:07:05;7.30;99.90
12049;DHT22;6085;49.452;8.502;2023-02-01T22:11:07;7.40;99.90
12049;DHT22;6085;49.452;8.502;2023-02-01T22:15:11;7.50;99.90
12049;DHT22;6085;49.452;8.502;2023-02-01T22:19:14;7.50;99.90
12049;DHT22;6085;49.452;8.502;2023-02-01T22:23:15;7.50;99.90
12049;DHT22;6085;49.452;8.502;2023-02-01T22:27:18;7.50;99.90
12049;DHT22;6085;49.452;8.502;2023-02-01T22:31:22;7.50;99.90
12049;DHT22;6085;49.452;8.502;2023-02-01T22:35:24;7.50;99.90
12049;DHT22;6085;49.452;8.502;2023-02-01T22:39:25;7.50;99.90
12049;DHT22;6085;49.452;8.502;2023-02-01T22:43:27;7.50;99.90
12049;DHT22;6085;49.452;8.502;2023-02-01T22:47:31;7.50;99.90
12049;DHT22;6085;49.452;8.502;2023-02-01T22:51:33;7.50;99.90
12049;DHT22;6085;49.452;8.502;2023-02-01T22:55:36;7.40;99.90
12049;DHT22;6085;49.452;8.502;2023-02-01T22:59:38;7.40;99.90
12049;DHT22;6085;49.452;8.502;2023-02-01T23:03:41;7.50;99.90
12049;DHT22;6085;49.452;8.502;2023-02-01T23:07:45;7.50;99.90
12049;DHT22;6085;49.452;8.502;2023-02-01T23:11:47;7.50;99.90
12049;DHT22;6085;49.452;8.502;2023-02-01T23:15:49;7.50;99.90
12049;DHT22;6085;49.452;8.502;2023-02-01T23:19:53;7.50;99.90
12049;DHT22;6085;49.452;8.502;2023-02-01T23:23:57;7.50;99.90
12049;DHT22;6085;49.452;8.502;2023-02-01T23:27:59;7.50;99.90
12049;DHT22;6085;49.452;8.502;2023-02-01T23:32:01;7.40;99.90
12049;DHT22;6085;49.452;8.502;2023-02-01T23:36:06;7.40;99.90
12049;DHT22;6085;49.452;8.502;2023-02-01T23:40:09;7.40;99.90
12049;DHT22;6085;49.452;8.502;2023-02-01T23:44:11;7.50;99.90
12049;DHT22;6085;49.452;8.502;2023-02-01T23:48:13;7.50;99.90
12049;DHT22;6085;49.452;8.502;2023-02-01T23:52:16;7.50;99.90
12049;DHT22;6085;49.452;8.502;2023-02-01T23:56:20;7.50;99.90
